Aviation Digital Data Service (ADDS)

Output produced by METARs form (2202 UTC 26 February 2020)
found at http://www.aviationweather.gov/metar/data/
 
LFRN 262130Z AUTO 19007KT CAVOK 06/02 Q1013 BECMG RA
TAF LFRN 261700Z 2618/2718 27008KT 9999 BKN030 
     BECMG 2618/2621 23010KT 
     BECMG 2621/2624 5000 RA 
     BECMG 2700/2703 17015G25KT 
     TEMPO 2702/2706 3000 RA BKN006 
     BECMG 2705/2707 24020G30KT 9999 NSW 
     TEMPO 2707/2712 5000 SHRA BKN015TCU 
     TEMPO 2709/2711 25025G40KT 
     BECMG 2710/2712 33020G30KT 
     BECMG 2713/2716 32012KT